Rich Fountain, Missouri
Current Conditions -  °F | °C
As of 7:28 AM on Friday 24 Oct 2014 (Local Time) from KVIH Reporting Station
Moderate Fog Moderate Fog  
Wind Chill: 46°   Ceiling: 1000
Heat Index: 48°   Visibility: 0.5mi
Dew Point: 47°   Wind: 5mph
Humidity: 96%   Direction: 230°SW
Pressure: 30.1"   Gusts: NA
Location:  38.3614°N, 91.929°W
Report Text: KVIH 241228Z AUTO 23004KT 1/2SM FG VV010 09/08 A3010 RMK AO2 T00890083
Loading
Personal Weather Stations






























Interactive Weather Map
Tropical Storm Tracking
New forecast layout! Learn more

10-Day Weather Forecast

Advertisements
Track Severe Weather on mobile